Domov               UVHVVR             MKGP            O straneh              
ZDRAVSTVENO VARSTVO RASTLIN
  MREŽA AGROMET. POSTAJ
 ► PROGNOSTIČNA OBVESTILA
AGROMETEOROLOŠKI PODATKI -
ARSO
OBVLADOVANJE TVEGANJ ZARADI
NEUGODNIH VREMENSKIH RAZMER
  ► NARAVNE NESREČE
  ► SUŠA/MOČA
  ► NAMAKANJE
  ► ŽLED (gozdarstvo)
KARTOGRAFSKI PRIKAZI
SPLETNE POVEZAVE
PROJEKTI IN PUBLIKACIJE

AGROMETEOROLOŠKA MREŽA: VREMENSKE POSTAJE IN FENOLOŠKA OPAZOVANJA

Pregled podatkov za lokacijo Virštanj, meteorološka postaja 39749

Pregled senzorjev na lokaciji

ID Ime Zadnja
vrednost
Datum
zadnje
spremembe
Tip
senzorja
3127 Padavine (mm) 0 mm 19.2.2018 06:30 Rain-O-Matic
3125 Relativna vlaga 2 m (% RH) 76,24 % RH 19.2.2018 06:30 50YA
3124 Temperatura 2 m (°C) -1,15 °C 19.2.2018 06:30 50YA

Pregled podatkov zadnjih 24 ur

Zap.
št.
Datum in čas Virštanj
Padavine Relativna
vlaga
2
m
Temperatura
2
m
1 19.2.2018 07:00
2 19.2.2018 06:30 0 76,2 -1,1
3 19.2.2018 06:00 0 75,5 -1,1
4 19.2.2018 05:30 0 75,8 -1
5 19.2.2018 05:00 0 76 -1
6 19.2.2018 04:30 0 75,6 -0,8
7 19.2.2018 04:00 0 75,1 -0,7
8 19.2.2018 03:30 0 74,7 -0,6
9 19.2.2018 03:00 0 74 -0,5
10 19.2.2018 02:30 0 73,8 -0,5
11 19.2.2018 02:00 0 75,2 -0,4
12 19.2.2018 01:30 0 75,3 -0,3
13 19.2.2018 01:00 0 78,2 -0,1
14 19.2.2018 00:30 0 79,4 0,1
15 19.2.2018 00:00 0 80,9 0,2
16 18.2.2018 23:30 0 81,6 0,3
17 18.2.2018 23:00 0 80,8 0,4
18 18.2.2018 22:30 0 80,1 0,5
19 18.2.2018 22:00 0 79 0,7
20 18.2.2018 21:30 0 78 0,9
21 18.2.2018 21:00 0 78,6 1
22 18.2.2018 20:30 0 79,8 1,1
23 18.2.2018 20:00 0 80,6 1,2
24 18.2.2018 19:30 0 81,3 1,4
25 18.2.2018 19:00 0 80,3 1,5
26 18.2.2018 18:30 0 80,4 1,5
27 18.2.2018 18:00 0 80 1,6
28 18.2.2018 17:30 0,2 80,6 1,7
29 18.2.2018 17:00 0 81,6 1,8
30 18.2.2018 16:30 0 83 1,9
31 18.2.2018 16:00 0,2 84,1 2,1
32 18.2.2018 15:30 0,2 84,8 2,2
33 18.2.2018 15:00 0,2 85,1 2,2
34 18.2.2018 14:30 0,4 84,3 2,3
35 18.2.2018 14:00 0,4 85 2,2
36 18.2.2018 13:30 0,4 86,5 1,9
37 18.2.2018 13:00 0,4 88,1 1,6
38 18.2.2018 12:30 0,2 89,5 1,4
39 18.2.2018 12:00 0,4 90,4 1,2
40 18.2.2018 11:30 0,4 91,9 1
41 18.2.2018 11:00 0,4 93,4 0,9
42 18.2.2018 10:30 0,4 94,1 0,6
43 18.2.2018 10:00 0,4 93,8 0,5
44 18.2.2018 09:30 0,4 94 0,4
45 18.2.2018 09:00 0 93,5 0,3
46 18.2.2018 08:30 0 94,9 0
47 18.2.2018 08:00 0 95,9 0
48 18.2.2018 07:30 0 95,5 0,1
© 2011 Ministrstvo za kmetijstvo, gozdarstvo in prehrano. Vse pravice pridržane.